sensor_id;sensor_type;location;lat;lon;timestamp;P1;durP1;ratioP1;P2;durP2;ratioP2
8564;SDS011;4320;51.498;6.556;2022-09-20T00:03:47;11.93;;;4.18;;
8564;SDS011;4320;51.498;6.556;2022-09-20T00:06:18;10.63;;;3.67;;
8564;SDS011;4320;51.498;6.556;2022-09-20T00:08:46;9.73;;;3.60;;
8564;SDS011;4320;51.498;6.556;2022-09-20T00:11:15;6.30;;;3.72;;
8564;SDS011;4320;51.498;6.556;2022-09-20T00:13:43;7.05;;;3.45;;
8564;SDS011;4320;51.498;6.556;2022-09-20T00:16:12;6.00;;;2.95;;
8564;SDS011;4320;51.498;6.556;2022-09-20T00:18:42;6.80;;;3.03;;
8564;SDS011;4320;51.498;6.556;2022-09-20T00:21:29;6.38;;;3.40;;
8564;SDS011;4320;51.498;6.556;2022-09-20T00:23:55;6.70;;;3.53;;
8564;SDS011;4320;51.498;6.556;2022-09-20T00:26:21;12.82;;;3.45;;
8564;SDS011;4320;51.498;6.556;2022-09-20T00:28:47;10.88;;;4.38;;
8564;SDS011;4320;51.498;6.556;2022-09-20T00:31:14;9.10;;;3.40;;
8564;SDS011;4320;51.498;6.556;2022-09-20T00:33:39;5.82;;;3.20;;
8564;SDS011;4320;51.498;6.556;2022-09-20T00:36:24;15.68;;;4.30;;
8564;SDS011;4320;51.498;6.556;2022-09-20T00:38:58;8.52;;;3.15;;
8564;SDS011;4320;51.498;6.556;2022-09-20T00:41:26;7.22;;;3.30;;
8564;SDS011;4320;51.498;6.556;2022-09-20T00:43:53;6.15;;;3.22;;
8564;SDS011;4320;51.498;6.556;2022-09-20T00:46:26;4.43;;;3.28;;
8564;SDS011;4320;51.498;6.556;2022-09-20T00:48:53;10.23;;;3.78;;
8564;SDS011;4320;51.498;6.556;2022-09-20T00:51:24;6.28;;;3.33;;
8564;SDS011;4320;51.498;6.556;2022-09-20T00:53:53;8.85;;;4.05;;
8564;SDS011;4320;51.498;6.556;2022-09-20T00:56:41;7.18;;;3.88;;
8564;SDS011;4320;51.498;6.556;2022-09-20T00:59:21;9.13;;;3.72;;
8564;SDS011;4320;51.498;6.556;2022-09-20T01:04:40;10.95;;;3.83;;
8564;SDS011;4320;51.498;6.556;2022-09-20T01:07:07;17.95;;;4.00;;
8564;SDS011;4320;51.498;6.556;2022-09-20T01:09:35;5.65;;;3.47;;
8564;SDS011;4320;51.498;6.556;2022-09-20T01:12:02;7.78;;;3.60;;
8564;SDS011;4320;51.498;6.556;2022-09-20T01:14:31;5.93;;;3.60;;
8564;SDS011;4320;51.498;6.556;2022-09-20T01:16:59;6.63;;;3.33;;
8564;SDS011;4320;51.498;6.556;2022-09-20T01:19:33;7.78;;;3.42;;
8564;SDS011;4320;51.498;6.556;2022-09-20T01:22:14;8.25;;;3.58;;
8564;SDS011;4320;51.498;6.556;2022-09-20T01:24:54;12.40;;;4.22;;
8564;SDS011;4320;51.498;6.556;2022-09-20T01:27:45;15.70;;;3.97;;
8564;SDS011;4320;51.498;6.556;2022-09-20T01:35:26;9.68;;;3.38;;
8564;SDS011;4320;51.498;6.556;2022-09-20T01:40:42;11.02;;;3.63;;
8564;SDS011;4320;51.498;6.556;2022-09-20T01:46:17;8.48;;;3.25;;
8564;SDS011;4320;51.498;6.556;2022-09-20T01:48:46;9.40;;;3.50;;
8564;SDS011;4320;51.498;6.556;2022-09-20T02:12:43;9.82;;;3.53;;
8564;SDS011;4320;51.498;6.556;2022-09-20T02:18:23;10.38;;;3.20;;
8564;SDS011;4320;51.498;6.556;2022-09-20T02:20:59;6.65;;;3.40;;
8564;SDS011;4320;51.498;6.556;2022-09-20T02:26:13;9.15;;;3.55;;
8564;SDS011;4320;51.498;6.556;2022-09-20T02:29:15;9.65;;;3.30;;
8564;SDS011;4320;51.498;6.556;2022-09-20T02:32:11;8.27;;;3.85;;
8564;SDS011;4320;51.498;6.556;2022-09-20T02:40:22;9.82;;;3.83;;
8564;SDS011;4320;51.498;6.556;2022-09-20T02:45:40;10.48;;;4.05;;
8564;SDS011;4320;51.498;6.556;2022-09-20T02:48:16;7.18;;;3.25;;
8564;SDS011;4320;51.498;6.556;2022-09-20T03:05:26;6.35;;;3.67;;
8564;SDS011;4320;51.498;6.556;2022-09-20T03:10:49;10.25;;;4.00;;
8564;SDS011;4320;51.498;6.556;2022-09-20T03:18:52;10.65;;;4.10;;
8564;SDS011;4320;51.498;6.556;2022-09-20T03:30:26;9.55;;;4.00;;
8564;SDS011;4320;51.498;6.556;2022-09-20T03:46:27;7.60;;;4.05;;
8564;SDS011;4320;51.498;6.556;2022-09-20T03:58:43;9.43;;;4.35;;
8564;SDS011;4320;51.498;6.556;2022-09-20T04:00:53;9.90;;;4.75;;
8564;SDS011;4320;51.498;6.556;2022-09-20T04:03:42;13.55;;;5.25;;
8564;SDS011;4320;51.498;6.556;2022-09-20T04:06:39;11.38;;;4.60;;
8564;SDS011;4320;51.498;6.556;2022-09-20T04:09:28;10.45;;;4.80;;
8564;SDS011;4320;51.498;6.556;2022-09-20T04:12:21;15.20;;;4.57;;
8564;SDS011;4320;51.498;6.556;2022-09-20T04:20:36;9.32;;;4.70;;
8564;SDS011;4320;51.498;6.556;2022-09-20T04:26:14;10.90;;;4.70;;
8564;SDS011;4320;51.498;6.556;2022-09-20T04:28:52;10.77;;;4.70;;
8564;SDS011;4320;51.498;6.556;2022-09-20T04:31:37;9.60;;;4.88;;
8564;SDS011;4320;51.498;6.556;2022-09-20T04:34:27;7.63;;;3.75;;
8564;SDS011;4320;51.498;6.556;2022-09-20T04:37:21;11.23;;;5.00;;
8564;SDS011;4320;51.498;6.556;2022-09-20T05:05:47;10.35;;;5.20;;
8564;SDS011;4320;51.498;6.556;2022-09-20T05:17:23;8.68;;;5.32;;
8564;SDS011;4320;51.498;6.556;2022-09-20T05:31:08;12.93;;;4.63;;
8564;SDS011;4320;51.498;6.556;2022-09-20T05:42:22;13.50;;;5.60;;
8564;SDS011;4320;51.498;6.556;2022-09-20T05:47:46;8.05;;;5.25;;
8564;SDS011;4320;51.498;6.556;2022-09-20T06:01:24;13.55;;;5.28;;
8564;SDS011;4320;51.498;6.556;2022-09-20T06:06:57;12.75;;;4.85;;
8564;SDS011;4320;51.498;6.556;2022-09-20T06:12:14;9.25;;;4.90;;
8564;SDS011;4320;51.498;6.556;2022-09-20T06:14:57;8.85;;;4.97;;
8564;SDS011;4320;51.498;6.556;2022-09-20T06:17:36;14.30;;;5.50;;
8564;SDS011;4320;51.498;6.556;2022-09-20T06:20:27;12.25;;;5.43;;
8564;SDS011;4320;51.498;6.556;2022-09-20T06:23:07;12.00;;;5.75;;
8564;SDS011;4320;51.498;6.556;2022-09-20T06:28:12;17.10;;;6.03;;
8564;SDS011;4320;51.498;6.556;2022-09-20T06:30:40;9.68;;;4.90;;
8564;SDS011;4320;51.498;6.556;2022-09-20T06:33:16;11.77;;;5.65;;
8564;SDS011;4320;51.498;6.556;2022-09-20T06:35:49;8.30;;;5.47;;
8564;SDS011;4320;51.498;6.556;2022-09-20T06:41:14;10.38;;;5.75;;
8564;SDS011;4320;51.498;6.556;2022-09-20T06:43:59;13.98;;;5.85;;
8564;SDS011;4320;51.498;6.556;2022-09-20T06:46:29;10.70;;;5.88;;
8564;SDS011;4320;51.498;6.556;2022-09-20T06:48:57;12.45;;;5.28;;
8564;SDS011;4320;51.498;6.556;2022-09-20T06:51:24;15.18;;;5.38;;
8564;SDS011;4320;51.498;6.556;2022-09-20T06:53:51;8.43;;;5.00;;
8564;SDS011;4320;51.498;6.556;2022-09-20T06:56:18;12.00;;;5.15;;
8564;SDS011;4320;51.498;6.556;2022-09-20T06:58:51;8.05;;;4.65;;
8564;SDS011;4320;51.498;6.556;2022-09-20T07:01:17;10.75;;;4.95;;
8564;SDS011;4320;51.498;6.556;2022-09-20T07:03:44;12.63;;;5.00;;
8564;SDS011;4320;51.498;6.556;2022-09-20T07:06:10;7.85;;;5.00;;
8564;SDS011;4320;51.498;6.556;2022-09-20T07:08:36;9.43;;;4.78;;
8564;SDS011;4320;51.498;6.556;2022-09-20T07:11:06;8.52;;;4.80;;
8564;SDS011;4320;51.498;6.556;2022-09-20T07:13:35;10.50;;;4.22;;
8564;SDS011;4320;51.498;6.556;2022-09-20T07:16:01;8.98;;;4.15;;
8564;SDS011;4320;51.498;6.556;2022-09-20T07:18:28;11.05;;;4.03;;
8564;SDS011;4320;51.498;6.556;2022-09-20T07:20:55;6.88;;;4.28;;
8564;SDS011;4320;51.498;6.556;2022-09-20T07:23:23;7.53;;;3.72;;
8564;SDS011;4320;51.498;6.556;2022-09-20T07:25:49;6.80;;;3.88;;
8564;SDS011;4320;51.498;6.556;2022-09-20T07:28:16;7.78;;;4.70;;
8564;SDS011;4320;51.498;6.556;2022-09-20T07:30:44;9.52;;;4.18;;
8564;SDS011;4320;51.498;6.556;2022-09-20T07:33:14;8.82;;;4.68;;
8564;SDS011;4320;51.498;6.556;2022-09-20T07:35:46;8.85;;;4.15;;
8564;SDS011;4320;51.498;6.556;2022-09-20T07:38:12;6.40;;;3.80;;
8564;SDS011;4320;51.498;6.556;2022-09-20T07:40:39;8.20;;;3.90;;
8564;SDS011;4320;51.498;6.556;2022-09-20T07:43:05;6.07;;;3.70;;
8564;SDS011;4320;51.498;6.556;2022-09-20T07:45:31;7.43;;;3.85;;
8564;SDS011;4320;51.498;6.556;2022-09-20T07:47:58;9.98;;;4.72;;
8564;SDS011;4320;51.498;6.556;2022-09-20T07:50:26;12.07;;;4.50;;
8564;SDS011;4320;51.498;6.556;2022-09-20T07:52:54;9.60;;;4.57;;
8564;SDS011;4320;51.498;6.556;2022-09-20T07:55:21;7.25;;;3.97;;
8564;SDS011;4320;51.498;6.556;2022-09-20T07:57:46;5.38;;;3.40;;
8564;SDS011;4320;51.498;6.556;2022-09-20T08:00:12;8.52;;;3.75;;
8564;SDS011;4320;51.498;6.556;2022-09-20T08:02:38;6.90;;;3.95;;
8564;SDS011;4320;51.498;6.556;2022-09-20T08:05:04;4.65;;;3.50;;
8564;SDS011;4320;51.498;6.556;2022-09-20T08:07:30;7.47;;;3.53;;
8564;SDS011;4320;51.498;6.556;2022-09-20T08:09:56;5.75;;;2.92;;
8564;SDS011;4320;51.498;6.556;2022-09-20T08:12:22;4.38;;;2.95;;
8564;SDS011;4320;51.498;6.556;2022-09-20T08:14:47;6.07;;;2.80;;
8564;SDS011;4320;51.498;6.556;2022-09-20T08:17:13;6.45;;;3.00;;
8564;SDS011;4320;51.498;6.556;2022-09-20T08:19:39;5.13;;;2.38;;
8564;SDS011;4320;51.498;6.556;2022-09-20T08:22:04;4.10;;;2.28;;
8564;SDS011;4320;51.498;6.556;2022-09-20T08:24:31;5.63;;;2.55;;
8564;SDS011;4320;51.498;6.556;2022-09-20T08:26:57;7.68;;;2.58;;
8564;SDS011;4320;51.498;6.556;2022-09-20T08:29:23;8.98;;;2.67;;
8564;SDS011;4320;51.498;6.556;2022-09-20T08:31:49;6.20;;;2.80;;
8564;SDS011;4320;51.498;6.556;2022-09-20T08:34:16;5.43;;;2.17;;
8564;SDS011;4320;51.498;6.556;2022-09-20T08:36:43;7.03;;;2.22;;
8564;SDS011;4320;51.498;6.556;2022-09-20T08:39:11;8.05;;;2.60;;
8564;SDS011;4320;51.498;6.556;2022-09-20T08:41:42;11.30;;;2.42;;
8564;SDS011;4320;51.498;6.556;2022-09-20T08:47:02;6.30;;;2.30;;
8564;SDS011;4320;51.498;6.556;2022-09-20T08:49:30;7.22;;;2.15;;
8564;SDS011;4320;51.498;6.556;2022-09-20T08:51:56;10.77;;;2.25;;
8564;SDS011;4320;51.498;6.556;2022-09-20T08:54:24;9.18;;;2.03;;
8564;SDS011;4320;51.498;6.556;2022-09-20T08:56:51;6.07;;;2.22;;
8564;SDS011;4320;51.498;6.556;2022-09-20T08:59:18;7.10;;;2.67;;
8564;SDS011;4320;51.498;6.556;2022-09-20T09:01:46;4.57;;;2.20;;
8564;SDS011;4320;51.498;6.556;2022-09-20T09:04:17;10.57;;;2.30;;
8564;SDS011;4320;51.498;6.556;2022-09-20T09:06:46;5.68;;;2.35;;
8564;SDS011;4320;51.498;6.556;2022-09-20T09:09:22;5.55;;;2.20;;
8564;SDS011;4320;51.498;6.556;2022-09-20T09:11:51;5.97;;;2.33;;
8564;SDS011;4320;51.498;6.556;2022-09-20T09:14:28;6.85;;;2.70;;
8564;SDS011;4320;51.498;6.556;2022-09-20T09:17:16;5.50;;;2.00;;
8564;SDS011;4320;51.498;6.556;2022-09-20T09:19:48;6.90;;;2.55;;
8564;SDS011;4320;51.498;6.556;2022-09-20T09:22:18;6.47;;;2.20;;
8564;SDS011;4320;51.498;6.556;2022-09-20T09:30:35;7.10;;;2.80;;
8564;SDS011;4320;51.498;6.556;2022-09-20T09:35:58;7.35;;;2.78;;
8564;SDS011;4320;51.498;6.556;2022-09-20T09:38:33;3.58;;;2.10;;
8564;SDS011;4320;51.498;6.556;2022-09-20T09:41:01;4.00;;;1.88;;
8564;SDS011;4320;51.498;6.556;2022-09-20T09:43:33;4.13;;;2.30;;
8564;SDS011;4320;51.498;6.556;2022-09-20T09:46:20;4.40;;;1.63;;
8564;SDS011;4320;51.498;6.556;2022-09-20T09:49:32;3.08;;;1.88;;
8564;SDS011;4320;51.498;6.556;2022-09-20T09:51:33;2.92;;;2.15;;
8564;SDS011;4320;51.498;6.556;2022-09-20T09:54:01;2.90;;;1.70;;
8564;SDS011;4320;51.498;6.556;2022-09-20T09:56:44;4.80;;;1.50;;
8564;SDS011;4320;51.498;6.556;2022-09-20T09:59:46;3.53;;;1.52;;
8564;SDS011;4320;51.498;6.556;2022-09-20T10:13:40;2.92;;;1.50;;
8564;SDS011;4320;51.498;6.556;2022-09-20T10:16:03;3.30;;;1.48;;
8564;SDS011;4320;51.498;6.556;2022-09-20T10:18:54;3.53;;;1.48;;
8564;SDS011;4320;51.498;6.556;2022-09-20T10:21:51;4.10;;;1.42;;
8564;SDS011;4320;51.498;6.556;2022-09-20T10:27:38;1.30;;;0.95;;
8564;SDS011;4320;51.498;6.556;2022-09-20T10:30:24;2.22;;;1.23;;
8564;SDS011;4320;51.498;6.556;2022-09-20T10:33:09;2.55;;;1.10;;
8564;SDS011;4320;51.498;6.556;2022-09-20T10:38:30;4.15;;;1.08;;
8564;SDS011;4320;51.498;6.556;2022-09-20T10:49:41;1.77;;;1.10;;
8564;SDS011;4320;51.498;6.556;2022-09-20T10:52:26;2.72;;;1.27;;
8564;SDS011;4320;51.498;6.556;2022-09-20T11:08:37;1.33;;;0.82;;
8564;SDS011;4320;51.498;6.556;2022-09-20T11:11:11;3.20;;;1.20;;
8564;SDS011;4320;51.498;6.556;2022-09-20T11:14:03;1.60;;;0.98;;
8564;SDS011;4320;51.498;6.556;2022-09-20T11:16:45;2.58;;;0.88;;
8564;SDS011;4320;51.498;6.556;2022-09-20T11:19:34;5.07;;;1.63;;
8564;SDS011;4320;51.498;6.556;2022-09-20T11:22:26;2.75;;;1.00;;
8564;SDS011;4320;51.498;6.556;2022-09-20T11:30:20;1.08;;;0.90;;
8564;SDS011;4320;51.498;6.556;2022-09-20T11:35:46;4.25;;;1.10;;
8564;SDS011;4320;51.498;6.556;2022-09-20T11:38:24;2.58;;;1.10;;
8564;SDS011;4320;51.498;6.556;2022-09-20T11:41:08;1.45;;;1.17;;
8564;SDS011;4320;51.498;6.556;2022-09-20T11:43:40;1.10;;;1.00;;
8564;SDS011;4320;51.498;6.556;2022-09-20T11:46:09;1.83;;;1.02;;
8564;SDS011;4320;51.498;6.556;2022-09-20T11:57:19;2.90;;;1.27;;
8564;SDS011;4320;51.498;6.556;2022-09-20T11:59:56;3.38;;;0.93;;
8564;SDS011;4320;51.498;6.556;2022-09-20T12:02:30;1.80;;;0.85;;
8564;SDS011;4320;51.498;6.556;2022-09-20T12:05:31;3.72;;;1.10;;
8564;SDS011;4320;51.498;6.556;2022-09-20T12:08:03;1.70;;;1.00;;
8564;SDS011;4320;51.498;6.556;2022-09-20T12:10:33;3.35;;;1.08;;
8564;SDS011;4320;51.498;6.556;2022-09-20T12:13:02;1.80;;;0.93;;
8564;SDS011;4320;51.498;6.556;2022-09-20T12:15:31;5.40;;;1.30;;
8564;SDS011;4320;51.498;6.556;2022-09-20T12:18:09;1.25;;;0.90;;
8564;SDS011;4320;51.498;6.556;2022-09-20T12:21:13;2.47;;;1.00;;
8564;SDS011;4320;51.498;6.556;2022-09-20T12:23:44;1.15;;;0.82;;
8564;SDS011;4320;51.498;6.556;2022-09-20T12:26:34;2.30;;;0.90;;
8564;SDS011;4320;51.498;6.556;2022-09-20T12:29:09;1.95;;;0.88;;
8564;SDS011;4320;51.498;6.556;2022-09-20T12:31:47;2.17;;;0.90;;
8564;SDS011;4320;51.498;6.556;2022-09-20T12:39:18;2.20;;;1.10;;
8564;SDS011;4320;51.498;6.556;2022-09-20T12:41:53;2.45;;;1.20;;
8564;SDS011;4320;51.498;6.556;2022-09-20T12:49:32;2.20;;;1.17;;
8564;SDS011;4320;51.498;6.556;2022-09-20T12:52:30;7.40;;;1.63;;
8564;SDS011;4320;51.498;6.556;2022-09-20T13:00:39;3.47;;;1.48;;
8564;SDS011;4320;51.498;6.556;2022-09-20T13:08:31;2.78;;;1.15;;
8564;SDS011;4320;51.498;6.556;2022-09-20T13:11:18;2.03;;;1.00;;
8564;SDS011;4320;51.498;6.556;2022-09-20T13:13:48;3.15;;;1.30;;
8564;SDS011;4320;51.498;6.556;2022-09-20T13:18:56;4.93;;;1.42;;
8564;SDS011;4320;51.498;6.556;2022-09-20T13:21:23;4.20;;;1.63;;
8564;SDS011;4320;51.498;6.556;2022-09-20T13:23:49;3.35;;;1.25;;
8564;SDS011;4320;51.498;6.556;2022-09-20T13:26:19;2.15;;;1.10;;
8564;SDS011;4320;51.498;6.556;2022-09-20T13:28:55;1.30;;;1.20;;
8564;SDS011;4320;51.498;6.556;2022-09-20T13:31:27;2.90;;;1.10;;
8564;SDS011;4320;51.498;6.556;2022-09-20T13:34:03;4.07;;;1.35;;
8564;SDS011;4320;51.498;6.556;2022-09-20T13:36:47;4.05;;;1.10;;
8564;SDS011;4320;51.498;6.556;2022-09-20T13:39:23;2.35;;;1.05;;
8564;SDS011;4320;51.498;6.556;2022-09-20T13:41:57;3.20;;;1.23;;
8564;SDS011;4320;51.498;6.556;2022-09-20T13:44:33;3.03;;;1.30;;
8564;SDS011;4320;51.498;6.556;2022-09-20T13:47:01;3.15;;;1.33;;
8564;SDS011;4320;51.498;6.556;2022-09-20T13:49:44;3.05;;;1.00;;
8564;SDS011;4320;51.498;6.556;2022-09-20T13:52:14;3.00;;;1.17;;
8564;SDS011;4320;51.498;6.556;2022-09-20T13:54:52;3.05;;;1.17;;
8564;SDS011;4320;51.498;6.556;2022-09-20T13:57:20;5.30;;;3.35;;
8564;SDS011;4320;51.498;6.556;2022-09-20T13:59:50;2.90;;;1.10;;
8564;SDS011;4320;51.498;6.556;2022-09-20T14:02:19;3.83;;;1.42;;
8564;SDS011;4320;51.498;6.556;2022-09-20T14:04:46;6.13;;;1.50;;
8564;SDS011;4320;51.498;6.556;2022-09-20T14:07:14;2.15;;;1.15;;
8564;SDS011;4320;51.498;6.556;2022-09-20T14:09:41;1.73;;;1.02;;
8564;SDS011;4320;51.498;6.556;2022-09-20T14:12:09;2.35;;;1.05;;
8564;SDS011;4320;51.498;6.556;2022-09-20T14:14:36;2.25;;;1.08;;
8564;SDS011;4320;51.498;6.556;2022-09-20T14:17:04;2.28;;;1.17;;
8564;SDS011;4320;51.498;6.556;2022-09-20T14:19:33;3.53;;;1.20;;
8564;SDS011;4320;51.498;6.556;2022-09-20T14:22:04;2.15;;;1.20;;
8564;SDS011;4320;51.498;6.556;2022-09-20T14:24:35;2.25;;;1.10;;
8564;SDS011;4320;51.498;6.556;2022-09-20T14:29:46;1.92;;;1.08;;
8564;SDS011;4320;51.498;6.556;2022-09-20T14:35:04;3.63;;;0.90;;
8564;SDS011;4320;51.498;6.556;2022-09-20T14:37:54;3.20;;;1.33;;
8564;SDS011;4320;51.498;6.556;2022-09-20T14:40:31;3.70;;;1.50;;
8564;SDS011;4320;51.498;6.556;2022-09-20T14:43:04;2.28;;;1.13;;
8564;SDS011;4320;51.498;6.556;2022-09-20T14:45:37;2.20;;;1.20;;
8564;SDS011;4320;51.498;6.556;2022-09-20T14:50:37;3.85;;;1.17;;
8564;SDS011;4320;51.498;6.556;2022-09-20T14:55:35;3.38;;;1.15;;
8564;SDS011;4320;51.498;6.556;2022-09-20T14:58:12;3.63;;;1.20;;
8564;SDS011;4320;51.498;6.556;2022-09-20T15:00:45;3.10;;;1.25;;
8564;SDS011;4320;51.498;6.556;2022-09-20T15:03:25;1.60;;;1.10;;
8564;SDS011;4320;51.498;6.556;2022-09-20T15:05:56;6.13;;;1.30;;
8564;SDS011;4320;51.498;6.556;2022-09-20T15:08:22;3.80;;;1.25;;
8564;SDS011;4320;51.498;6.556;2022-09-20T15:10:48;3.00;;;1.20;;
8564;SDS011;4320;51.498;6.556;2022-09-20T15:13:13;6.38;;;1.42;;
8564;SDS011;4320;51.498;6.556;2022-09-20T15:15:39;3.88;;;1.52;;
8564;SDS011;4320;51.498;6.556;2022-09-20T15:18:11;4.00;;;1.38;;
8564;SDS011;4320;51.498;6.556;2022-09-20T15:20:44;2.00;;;1.17;;
8564;SDS011;4320;51.498;6.556;2022-09-20T15:23:09;8.07;;;1.75;;
8564;SDS011;4320;51.498;6.556;2022-09-20T15:25:35;3.90;;;1.23;;
8564;SDS011;4320;51.498;6.556;2022-09-20T15:28:00;3.85;;;1.23;;
8564;SDS011;4320;51.498;6.556;2022-09-20T15:30:26;3.95;;;1.55;;
8564;SDS011;4320;51.498;6.556;2022-09-20T15:32:52;4.07;;;1.15;;
8564;SDS011;4320;51.498;6.556;2022-09-20T15:35:17;3.45;;;1.25;;
8564;SDS011;4320;51.498;6.556;2022-09-20T15:37:43;3.42;;;1.27;;
8564;SDS011;4320;51.498;6.556;2022-09-20T15:40:09;3.85;;;1.73;;
8564;SDS011;4320;51.498;6.556;2022-09-20T15:42:35;3.50;;;1.42;;
8564;SDS011;4320;51.498;6.556;2022-09-20T15:45:05;4.20;;;1.88;;
8564;SDS011;4320;51.498;6.556;2022-09-20T15:47:35;4.95;;;2.60;;
8564;SDS011;4320;51.498;6.556;2022-09-20T15:50:05;2.70;;;1.60;;
8564;SDS011;4320;51.498;6.556;2022-09-20T15:52:35;6.88;;;1.40;;
8564;SDS011;4320;51.498;6.556;2022-09-20T15:55:04;4.93;;;1.70;;
8564;SDS011;4320;51.498;6.556;2022-09-20T15:57:31;7.78;;;1.90;;
8564;SDS011;4320;51.498;6.556;2022-09-20T15:59:58;2.35;;;1.27;;
8564;SDS011;4320;51.498;6.556;2022-09-20T16:02:24;2.33;;;1.48;;
8564;SDS011;4320;51.498;6.556;2022-09-20T16:04:50;4.45;;;1.95;;
8564;SDS011;4320;51.498;6.556;2022-09-20T16:07:18;7.35;;;3.13;;
8564;SDS011;4320;51.498;6.556;2022-09-20T16:09:49;8.65;;;2.83;;
8564;SDS011;4320;51.498;6.556;2022-09-20T16:12:19;5.45;;;2.00;;
8564;SDS011;4320;51.498;6.556;2022-09-20T16:14:45;11.77;;;3.92;;
8564;SDS011;4320;51.498;6.556;2022-09-20T16:17:11;8.85;;;3.00;;
8564;SDS011;4320;51.498;6.556;2022-09-20T16:19:37;3.40;;;1.50;;
8564;SDS011;4320;51.498;6.556;2022-09-20T16:22:04;4.47;;;1.67;;
8564;SDS011;4320;51.498;6.556;2022-09-20T16:24:33;7.07;;;1.88;;
8564;SDS011;4320;51.498;6.556;2022-09-20T16:27:01;4.30;;;1.58;;
8564;SDS011;4320;51.498;6.556;2022-09-20T16:29:30;5.50;;;1.33;;
8564;SDS011;4320;51.498;6.556;2022-09-20T16:31:57;4.60;;;1.42;;
8564;SDS011;4320;51.498;6.556;2022-09-20T16:34:28;3.92;;;1.30;;
8564;SDS011;4320;51.498;6.556;2022-09-20T16:36:59;3.92;;;1.48;;
8564;SDS011;4320;51.498;6.556;2022-09-20T16:39:26;3.25;;;1.80;;
8564;SDS011;4320;51.498;6.556;2022-09-20T16:41:54;4.28;;;1.38;;
8564;SDS011;4320;51.498;6.556;2022-09-20T16:44:21;5.93;;;1.38;;
8564;SDS011;4320;51.498;6.556;2022-09-20T16:46:47;2.90;;;1.60;;
8564;SDS011;4320;51.498;6.556;2022-09-20T16:49:13;8.35;;;1.80;;
8564;SDS011;4320;51.498;6.556;2022-09-20T16:51:39;9.23;;;2.25;;
8564;SDS011;4320;51.498;6.556;2022-09-20T16:54:07;3.22;;;1.55;;
8564;SDS011;4320;51.498;6.556;2022-09-20T16:56:36;5.60;;;1.60;;
8564;SDS011;4320;51.498;6.556;2022-09-20T16:59:04;3.60;;;1.48;;
8564;SDS011;4320;51.498;6.556;2022-09-20T17:01:31;5.45;;;1.75;;
8564;SDS011;4320;51.498;6.556;2022-09-20T17:03:58;8.40;;;1.80;;
8564;SDS011;4320;51.498;6.556;2022-09-20T17:06:25;5.30;;;1.95;;
8564;SDS011;4320;51.498;6.556;2022-09-20T17:08:53;4.72;;;1.80;;
8564;SDS011;4320;51.498;6.556;2022-09-20T17:11:21;4.05;;;1.55;;
8564;SDS011;4320;51.498;6.556;2022-09-20T17:13:48;4.85;;;1.70;;
8564;SDS011;4320;51.498;6.556;2022-09-20T17:16:19;3.65;;;1.60;;
8564;SDS011;4320;51.498;6.556;2022-09-20T17:18:50;3.83;;;1.90;;
8564;SDS011;4320;51.498;6.556;2022-09-20T17:21:19;4.78;;;2.00;;
8564;SDS011;4320;51.498;6.556;2022-09-20T17:23:47;4.32;;;2.30;;
8564;SDS011;4320;51.498;6.556;2022-09-20T17:28:48;3.15;;;1.60;;
8564;SDS011;4320;51.498;6.556;2022-09-20T17:31:16;3.10;;;1.70;;
8564;SDS011;4320;51.498;6.556;2022-09-20T17:33:44;5.15;;;1.40;;
8564;SDS011;4320;51.498;6.556;2022-09-20T17:36:13;3.10;;;1.77;;
8564;SDS011;4320;51.498;6.556;2022-09-20T17:38:43;3.40;;;1.67;;
8564;SDS011;4320;51.498;6.556;2022-09-20T17:41:11;7.88;;;1.60;;
8564;SDS011;4320;51.498;6.556;2022-09-20T17:43:42;7.55;;;2.05;;
8564;SDS011;4320;51.498;6.556;2022-09-20T17:46:18;2.88;;;1.50;;
8564;SDS011;4320;51.498;6.556;2022-09-20T17:48:46;3.65;;;1.80;;
8564;SDS011;4320;51.498;6.556;2022-09-20T17:51:16;3.80;;;1.52;;
8564;SDS011;4320;51.498;6.556;2022-09-20T17:53:43;3.17;;;1.75;;
8564;SDS011;4320;51.498;6.556;2022-09-20T17:56:12;4.90;;;2.20;;
8564;SDS011;4320;51.498;6.556;2022-09-20T17:58:39;4.78;;;2.00;;
8564;SDS011;4320;51.498;6.556;2022-09-20T18:01:06;4.80;;;2.08;;
8564;SDS011;4320;51.498;6.556;2022-09-20T18:03:38;6.43;;;2.17;;
8564;SDS011;4320;51.498;6.556;2022-09-20T18:08:37;5.55;;;2.25;;
8564;SDS011;4320;51.498;6.556;2022-09-20T18:11:03;6.15;;;3.30;;
8564;SDS011;4320;51.498;6.556;2022-09-20T18:13:29;8.43;;;2.97;;
8564;SDS011;4320;51.498;6.556;2022-09-20T18:15:55;6.18;;;2.35;;
8564;SDS011;4320;51.498;6.556;2022-09-20T18:18:20;4.88;;;2.55;;
8564;SDS011;4320;51.498;6.556;2022-09-20T18:20:47;5.22;;;2.78;;
8564;SDS011;4320;51.498;6.556;2022-09-20T18:23:12;5.70;;;2.55;;
8564;SDS011;4320;51.498;6.556;2022-09-20T18:25:38;4.03;;;2.47;;
8564;SDS011;4320;51.498;6.556;2022-09-20T18:28:22;4.43;;;2.55;;
8564;SDS011;4320;51.498;6.556;2022-09-20T18:30:57;8.02;;;2.90;;
8564;SDS011;4320;51.498;6.556;2022-09-20T18:33:24;7.13;;;3.05;;
8564;SDS011;4320;51.498;6.556;2022-09-20T18:35:50;8.38;;;3.45;;
8564;SDS011;4320;51.498;6.556;2022-09-20T18:38:16;7.05;;;2.80;;
8564;SDS011;4320;51.498;6.556;2022-09-20T18:40:42;4.90;;;2.88;;
8564;SDS011;4320;51.498;6.556;2022-09-20T18:43:17;4.65;;;3.15;;
8564;SDS011;4320;51.498;6.556;2022-09-20T18:45:49;8.15;;;3.63;;
8564;SDS011;4320;51.498;6.556;2022-09-20T18:48:17;9.60;;;3.33;;
8564;SDS011;4320;51.498;6.556;2022-09-20T18:50:53;5.78;;;3.15;;
8564;SDS011;4320;51.498;6.556;2022-09-20T18:53:24;5.05;;;3.13;;
8564;SDS011;4320;51.498;6.556;2022-09-20T18:55:54;13.55;;;5.97;;
8564;SDS011;4320;51.498;6.556;2022-09-20T18:58:21;9.85;;;4.50;;
8564;SDS011;4320;51.498;6.556;2022-09-20T19:00:51;8.05;;;4.80;;
8564;SDS011;4320;51.498;6.556;2022-09-20T19:03:29;9.23;;;4.72;;
8564;SDS011;4320;51.498;6.556;2022-09-20T19:06:07;9.70;;;5.72;;
8564;SDS011;4320;51.498;6.556;2022-09-20T19:08:59;10.25;;;5.40;;
8564;SDS011;4320;51.498;6.556;2022-09-20T19:11:29;12.00;;;5.53;;
8564;SDS011;4320;51.498;6.556;2022-09-20T19:14:06;7.95;;;5.25;;
8564;SDS011;4320;51.498;6.556;2022-09-20T19:16:59;8.10;;;5.50;;
8564;SDS011;4320;51.498;6.556;2022-09-20T19:22:17;11.20;;;6.53;;
8564;SDS011;4320;51.498;6.556;2022-09-20T19:27:14;11.57;;;5.93;;
8564;SDS011;4320;51.498;6.556;2022-09-20T19:29:40;10.95;;;5.60;;
8564;SDS011;4320;51.498;6.556;2022-09-20T19:32:08;9.05;;;5.78;;
8564;SDS011;4320;51.498;6.556;2022-09-20T19:34:50;11.25;;;5.43;;
8564;SDS011;4320;51.498;6.556;2022-09-20T19:37:36;9.82;;;5.90;;
8564;SDS011;4320;51.498;6.556;2022-09-20T19:46:11;10.40;;;5.07;;
8564;SDS011;4320;51.498;6.556;2022-09-20T19:48:39;6.00;;;3.72;;
8564;SDS011;4320;51.498;6.556;2022-09-20T19:51:31;7.72;;;4.25;;
8564;SDS011;4320;51.498;6.556;2022-09-20T19:54:01;7.15;;;4.30;;
8564;SDS011;4320;51.498;6.556;2022-09-20T19:56:27;7.60;;;4.47;;
8564;SDS011;4320;51.498;6.556;2022-09-20T19:58:56;7.93;;;4.70;;
8564;SDS011;4320;51.498;6.556;2022-09-20T20:01:22;8.43;;;4.82;;
8564;SDS011;4320;51.498;6.556;2022-09-20T20:03:49;9.38;;;4.93;;
8564;SDS011;4320;51.498;6.556;2022-09-20T20:12:07;7.95;;;4.40;;
8564;SDS011;4320;51.498;6.556;2022-09-20T20:20:35;8.50;;;4.13;;
8564;SDS011;4320;51.498;6.556;2022-09-20T20:23:07;5.80;;;4.55;;
8564;SDS011;4320;51.498;6.556;2022-09-20T20:25:56;9.02;;;4.13;;
8564;SDS011;4320;51.498;6.556;2022-09-20T20:28:29;73.35;;;40.80;;
8564;SDS011;4320;51.498;6.556;2022-09-20T20:30:56;68.88;;;43.00;;
8564;SDS011;4320;51.498;6.556;2022-09-20T20:33:28;17.30;;;10.15;;
8564;SDS011;4320;51.498;6.556;2022-09-20T20:35:54;16.27;;;9.18;;
8564;SDS011;4320;51.498;6.556;2022-09-20T20:38:22;7.75;;;5.10;;
8564;SDS011;4320;51.498;6.556;2022-09-20T20:40:57;6.10;;;4.65;;
8564;SDS011;4320;51.498;6.556;2022-09-20T20:43:26;7.88;;;4.63;;
8564;SDS011;4320;51.498;6.556;2022-09-20T20:45:52;6.50;;;4.80;;
8564;SDS011;4320;51.498;6.556;2022-09-20T20:48:17;8.80;;;4.85;;
8564;SDS011;4320;51.498;6.556;2022-09-20T20:50:43;7.00;;;5.10;;
8564;SDS011;4320;51.498;6.556;2022-09-20T20:53:09;8.00;;;4.18;;
8564;SDS011;4320;51.498;6.556;2022-09-20T20:55:34;7.82;;;6.22;;
8564;SDS011;4320;51.498;6.556;2022-09-20T20:58:00;6.97;;;4.60;;
8564;SDS011;4320;51.498;6.556;2022-09-20T21:00:26;7.22;;;4.80;;
8564;SDS011;4320;51.498;6.556;2022-09-20T21:02:58;9.23;;;4.85;;
8564;SDS011;4320;51.498;6.556;2022-09-20T21:05:28;6.30;;;4.88;;
8564;SDS011;4320;51.498;6.556;2022-09-20T21:07:54;9.93;;;4.78;;